createdAt,value
2022-10-01T10:27:29.287Z,7.43
2022-10-01T10:30:16.085Z,9.30
2022-10-01T10:32:44.076Z,10.32
2022-10-01T10:35:14.984Z,9.13
2022-10-01T10:37:48.301Z,10.37
2022-10-01T10:40:24.584Z,7.57
2022-10-01T10:42:56.092Z,5.55
2022-10-01T10:45:37.289Z,7.87
2022-10-01T10:48:08.065Z,6.22
2022-10-01T10:50:40.983Z,10.70
2022-10-01T10:53:22.542Z,6.17
2022-10-01T10:55:56.293Z,9.82
2022-10-01T10:58:26.733Z,9.65
2022-10-01T11:00:58.010Z,10.57
2022-10-01T11:03:28.281Z,7.10
2022-10-01T11:06:02.565Z,5.80
2022-10-01T11:08:29.049Z,6.68
2022-10-01T11:11:23.260Z,8.30
2022-10-01T11:14:45.365Z,7.60
2022-10-01T11:17:27.240Z,7.30
2022-10-01T11:20:11.446Z,7.37
2022-10-01T11:23:00.779Z,8.25
2022-10-01T11:25:52.407Z,8.05
2022-10-01T11:28:27.776Z,7.60
2022-10-01T11:31:24.661Z,5.93
2022-10-01T11:33:55.599Z,8.48
2022-10-01T11:36:29.148Z,6.88
2022-10-01T11:39:02.665Z,5.40
2022-10-01T11:41:41.384Z,9.18
2022-10-01T11:44:16.415Z,8.73
2022-10-01T11:46:54.042Z,4.83
2022-10-01T11:49:38.142Z,8.75
2022-10-01T11:52:25.043Z,5.00
2022-10-01T11:54:56.216Z,4.18
2022-10-01T11:57:42.750Z,10.20
2022-10-01T12:00:13.244Z,4.95
2022-10-01T12:02:56.809Z,6.38
2022-10-01T12:05:29.075Z,3.93
2022-10-01T12:08:27.915Z,5.55
2022-10-01T12:11:05.523Z,5.43
2022-10-01T12:13:37.474Z,3.43
2022-10-01T12:16:27.586Z,4.57
2022-10-01T12:19:21.426Z,5.05
2022-10-01T12:21:59.714Z,4.35
2022-10-01T12:24:33.957Z,3.53
2022-10-01T12:27:42.220Z,5.90
2022-10-01T12:30:24.651Z,4.78
2022-10-01T12:33:14.375Z,5.33
2022-10-01T12:36:07.976Z,3.00
2022-10-01T12:38:47.117Z,4.68
2022-10-01T12:41:41.949Z,6.10
2022-10-01T12:44:36.994Z,5.88
2022-10-01T12:47:42.831Z,5.60
2022-10-01T12:50:27.081Z,8.25
2022-10-01T12:53:05.144Z,5.53
2022-10-01T12:55:46.310Z,5.72
2022-10-01T12:58:34.064Z,14.43
2022-10-01T13:01:11.074Z,50.17
2022-10-01T13:04:03.500Z,65.25
2022-10-01T13:06:48.054Z,189.60
2022-10-01T13:09:50.210Z,120.50
2022-10-01T13:12:35.707Z,269.98
2022-10-01T13:15:04.072Z,289.48
2022-10-01T13:17:46.757Z,333.50
2022-10-01T13:20:33.728Z,345.53
2022-10-01T13:23:09.600Z,356.00
2022-10-01T13:26:04.389Z,380.48
2022-10-01T13:28:51.950Z,357.90
2022-10-01T13:31:21.553Z,351.00
2022-10-01T13:33:57.397Z,342.02
2022-10-01T13:36:33.253Z,341.77
2022-10-01T13:38:59.926Z,342.25
2022-10-01T13:41:35.935Z,329.70
2022-10-01T13:44:08.174Z,332.65
2022-10-01T13:46:48.051Z,328.57
2022-10-01T13:49:22.349Z,316.80
2022-10-01T13:51:48.651Z,316.98
2022-10-01T13:54:47.308Z,309.00
2022-10-01T13:57:31.932Z,287.80
2022-10-01T14:00:22.950Z,305.33
2022-10-01T14:03:42.023Z,288.23
2022-10-01T14:06:17.644Z,283.92
